Airfield :







YOU CAN JOIN US ON...

 
LOGIN :

Register | Disclaimer

   EN    FR    IT 

 









Legend :    VFR   Marginal VFR   IFR   Intensive IFR   Very Intensive IFR
Visi :
Ceiling :
>= 8 km
>= 3000ft
5 to 8 km
1000 to 3000 ft
1500m to 5 km
500 to 1000 ft
800 to 1500m
200 to 500 ft
< 800m
< 200 ft
Symbols :   Thunderstorms  Fog  Heavy snow  Heavy precipitations  Wind > 20 kt






- Airport Elevation : 232 ft
- IATA code : YQM


CYQM - Greater Moncton International

CURRENT METAR :
  • 161900Z 24013G21KT 15SM BKN025 01/M05 A2994 RMK CU6 SLP144

EXPIRED METARs :
  • 161800Z 23020KT 15SM DRSN BKN025 00/M05 A2994 RMK CU7 SLP145
  • 161700Z 24015G20KT 15SM BKN020 M00/M05 A2995 RMK CU7 SLP148

TAF AMD TAF CYQM
Valid from the 16 at 18:00 until the 17 at 18:00 UTC


161818Z 1618/1718 24012G22KT P6SM SCT015 BKN030
TEMPO 1618/1620 5SM -SHSN BKN015 BKN030
FM162000 24010G20KT P6SM SCT030
BECMG 1701/1703 23005KT
FM171500 24010KT P6SM BKN030 RMK NXT FCST BY 170000Z



MET'MAP, your aeronautical weather chart ! - Copyright ORBIFLY December 2007 - Disclaimer

ORBIFLY MET'MAP TEAM :

Programming & Development : Alexandra Zaïnal
Concept & original design : Baudouin d'Aumeries
Assistance for programming : Marc-Olivier Méhu
Technical & hardware support : Manuel Goepfert

Contact : metmap@orbifly.com




SOURCES & CREDITS :

   NOAA